Time;durP1;ratioP1;P1;durP2;ratioP2;P2;SDS_P1;SDS_P2;PMS_P1;PMS_P2;Temp;Humidity;BMP_temperature;BMP_pressure;BME280_temperature;BME280_humidity;BME280_pressure;Samples;Min_cycle;Max_cycle;Signal;HPM_P1;HPM_P2
2021/08/31 00:01:20;;;;;;;5.10;4.80;;;;;;;11.43;100.00;101560.56;4398969;32;20099;-69
2021/08/31 00:03:45;;;;;;;5.10;4.82;;;;;;;12.70;100.00;101746.31;4392344;32;20908;-69
2021/08/31 00:06:11;;;;;;;5.05;4.85;;;;;;;12.70;100.00;101750.72;4412329;32;20061;-69
2021/08/31 00:08:36;;;;;;;4.57;4.37;;;;;;;12.69;100.00;101749.00;4416290;32;20103;-69
2021/08/31 00:11:01;;;;;;;5.37;5.12;;;;;;;12.69;100.00;101757.78;4413225;32;20075;-69
2021/08/31 00:13:27;;;;;;;6.87;6.18;;;;;;;12.68;100.00;101750.78;4406895;32;20068;-69
2021/08/31 00:15:52;;;;;;;4.85;4.65;;;;;;;12.66;100.00;101751.78;4426004;32;20080;-69
2021/08/31 00:18:18;;;;;;;5.00;4.80;;;;;;;12.64;100.00;101754.47;4391684;32;20593;-69
2021/08/31 00:20:43;;;;;;;5.10;4.90;;;;;;;12.64;100.00;101756.28;4410071;32;20068;-69
2021/08/31 00:23:09;;;;;;;5.22;5.00;;;;;;;12.62;100.00;101752.84;4407542;32;20960;-69
2021/08/31 00:25:34;;;;;;;6.57;6.28;;;;;;;12.60;100.00;101757.31;4394420;32;20064;-68
2021/08/31 00:27:59;;;;;;;4.90;4.70;;;;;;;12.58;100.00;101749.50;4415194;32;20574;-68
2021/08/31 00:30:25;;;;;;;4.80;4.60;;;;;;;12.58;100.00;101746.84;4412145;32;20061;-69
2021/08/31 00:32:50;;;;;;;4.80;4.60;;;;;;;12.56;100.00;101754.81;4411182;32;20142;-68
2021/08/31 00:35:15;;;;;;;5.47;5.22;;;;;;;12.56;100.00;101760.06;4420873;32;20899;-68
2021/08/31 00:37:41;;;;;;;5.50;5.30;;;;;;;12.55;100.00;101750.50;4395354;32;20440;-69
2021/08/31 00:40:06;;;;;;;5.10;4.80;;;;;;;12.55;100.00;101760.16;4408152;32;20088;-68
2021/08/31 00:42:32;;;;;;;7.18;6.82;;;;;;;12.55;100.00;101760.16;4398893;32;20614;-69
2021/08/31 00:44:57;;;;;;;4.65;4.45;;;;;;;12.52;100.00;101761.12;4408303;32;20088;-69
2021/08/31 00:47:23;;;;;;;4.85;4.65;;;;;;;12.51;100.00;101756.81;4398717;32;20084;-69
2021/08/31 00:49:49;;;;;;;4.72;4.53;;;;;;;12.42;100.00;101748.44;4412384;32;20211;-69
2021/08/31 00:52:14;;;;;;;4.90;4.70;;;;;;;12.46;100.00;101764.03;4396326;32;20720;-69
2021/08/31 00:54:39;;;;;;;4.87;4.68;;;;;;;12.44;100.00;101765.87;4395950;32;20852;-69
2021/08/31 00:57:05;;;;;;;4.60;4.40;;;;;;;12.44;100.00;101765.03;4409228;32;20072;-69
2021/08/31 00:59:30;;;;;;;6.50;6.18;;;;;;;12.28;100.00;101752.50;4395033;32;20916;-69
2021/08/31 01:01:56;;;;;;;5.03;4.82;;;;;;;12.41;100.00;101767.78;4412440;32;20080;-69
2021/08/31 01:04:28;;;;;;;4.43;4.22;;;;;;;12.39;100.00;101775.78;4397149;32;20195;-69
2021/08/31 01:06:53;;;;;;;4.85;4.65;;;;;;;12.38;100.00;101772.25;4409134;32;20953;-69
2021/08/31 01:09:20;;;;;;;5.05;4.85;;;;;;;12.37;100.00;101781.09;4413913;32;20068;-70
2021/08/31 01:11:46;;;;;;;4.65;4.45;;;;;;;12.35;100.00;101777.66;4407488;32;20076;-69
2021/08/31 01:14:11;;;;;;;6.87;6.57;;;;;;;12.31;100.00;101769.97;4421065;32;20088;-69
2021/08/31 01:16:37;;;;;;;5.45;5.15;;;;;;;12.33;100.00;101784.78;4392048;32;21556;-69
2021/08/31 01:19:02;;;;;;;5.55;5.25;;;;;;;12.30;100.00;101774.38;4421209;32;20087;-70
2021/08/31 01:21:28;;;;;;;6.37;6.07;;;;;;;12.06;100.00;101733.28;4394895;32;20072;-69
2021/08/31 01:23:54;;;;;;;5.12;4.87;;;;;;;12.28;100.00;101783.25;4394000;32;21007;-69
2021/08/31 01:26:20;;;;;;;4.93;4.62;;;;;;;12.27;100.00;101778.94;4397624;32;20590;-70
2021/08/31 01:28:45;;;;;;;5.12;4.93;;;;;;;12.27;100.00;101777.13;4395113;32;20591;-69
2021/08/31 01:31:11;;;;;;;5.00;4.80;;;;;;;11.93;100.00;101722.44;4416453;32;20075;-69
2021/08/31 01:33:36;;;;;;;7.53;7.12;;;;;;;12.24;100.00;101769.34;4410539;32;20084;-69
2021/08/31 01:36:21;;;;;;;4.70;4.50;;;;;;;12.25;100.00;101775.47;4404942;32;20083;-69
2021/08/31 01:38:51;;;;;;;4.85;4.65;;;;;;;12.21;100.00;101785.28;4393181;32;20948;-68
2021/08/31 01:41:16;;;;;;;4.65;4.45;;;;;;;12.18;100.00;101783.63;4414877;32;20068;-69
2021/08/31 01:43:42;;;;;;;5.40;5.20;;;;;;;12.20;100.00;101777.44;4414050;32;20574;-69
2021/08/31 01:46:07;;;;;;;4.80;4.60;;;;;;;12.15;100.00;101783.78;4413644;32;20094;-69
2021/08/31 01:48:32;;;;;;;7.10;6.75;;;;;;;12.13;100.00;101782.97;4409387;32;20068;-69
2021/08/31 01:50:58;;;;;;;5.10;4.90;;;;;;;12.13;100.00;101787.38;4395395;32;20076;-69
2021/08/31 01:53:23;;;;;;;5.32;5.07;;;;;;;12.10;100.00;101787.50;4411738;32;20079;-70
2021/08/31 01:55:48;;;;;;;5.10;4.90;;;;;;;12.06;100.00;101797.28;4396924;32;20072;-69
2021/08/31 01:58:14;;;;;;;4.90;4.70;;;;;;;11.96;100.00;101782.81;4409020;32;20865;-70
2021/08/31 02:00:39;;;;;;;6.07;5.72;;;;;;;12.02;100.00;101800.13;4391225;32;20378;-69
2021/08/31 02:03:05;;;;;;;5.10;4.70;;;;;;;12.01;100.00;101807.16;4412088;32;20129;-69
2021/08/31 02:05:30;;;;;;;4.90;4.70;;;;;;;11.98;100.00;101807.28;4399080;32;20084;-69
2021/08/31 02:07:55;;;;;;;4.90;4.70;;;;;;;11.98;100.00;101800.22;4411304;32;20574;-68
2021/08/31 02:10:21;;;;;;;4.90;4.70;;;;;;;11.98;100.00;101800.22;4400547;32;20075;-69
2021/08/31 02:12:46;;;;;;;4.85;4.65;;;;;;;11.89;100.00;101792.72;4410558;32;20060;-69
2021/08/31 02:15:12;;;;;;;7.65;7.25;;;;;;;11.96;100.00;101812.59;4416624;32;20130;-69
2021/08/31 02:17:37;;;;;;;4.70;4.50;;;;;;;11.94;100.00;101811.78;4407488;32;20088;-69
2021/08/31 02:20:03;;;;;;;4.70;4.50;;;;;;;11.92;100.00;101803.09;4412811;32;20106;-69
2021/08/31 02:22:28;;;;;;;6.30;6.00;;;;;;;11.96;100.00;101812.59;4410979;32;20076;-69
2021/08/31 02:24:54;;;;;;;5.37;4.93;;;;;;;11.95;100.00;101816.16;4397169;32;20064;-69
2021/08/31 02:27:19;;;;;;;5.68;5.37;;;;;;;11.94;100.00;101816.22;4395529;32;20107;-69
2021/08/31 02:29:44;;;;;;;4.97;4.78;;;;;;;11.95;100.00;101820.56;4394922;32;20189;-69
2021/08/31 02:32:10;;;;;;;5.00;4.80;;;;;;;11.92;100.00;101811.00;4408808;32;21009;-69
2021/08/31 02:34:36;;;;;;;6.70;6.40;;;;;;;11.27;100.00;101717.16;4395153;32;20088;-69
2021/08/31 02:37:01;;;;;;;5.05;4.85;;;;;;;11.86;100.00;101808.59;4414502;32;20845;-69
2021/08/31 02:39:26;;;;;;;6.30;6.00;;;;;;;11.86;100.00;101811.22;4411996;32;20072;-69
2021/08/31 02:41:52;;;;;;;4.65;4.45;;;;;;;11.82;100.00;101808.78;4413881;32;21033;-69
2021/08/31 02:44:17;;;;;;;5.00;4.80;;;;;;;11.77;100.00;101803.69;4411869;32;20920;-69
2021/08/31 02:46:42;;;;;;;5.47;5.28;;;;;;;11.74;100.00;101807.28;4409024;32;20659;-69
2021/08/31 02:49:08;;;;;;;4.82;4.62;;;;;;;11.70;100.00;101807.47;4413942;32;20090;-68
2021/08/31 02:51:33;;;;;;;7.18;6.82;;;;;;;11.68;100.00;101809.31;4408364;32;20075;-68
2021/08/31 02:53:59;;;;;;;5.00;4.80;;;;;;;11.67;100.00;101807.63;4414543;32;20061;-69
2021/08/31 02:56:24;;;;;;;5.57;5.30;;;;;;;11.65;100.00;101812.06;4412154;32;20885;-69
2021/08/31 02:58:50;;;;;;;4.93;4.72;;;;;;;11.62;100.00;101812.19;4396812;32;20064;-69
2021/08/31 03:03:56;;;;;;;4.90;4.70;;;;;;;11.40;100.00;101791.12;4416196;32;20079;-69
2021/08/31 03:06:22;;;;;;;5.20;5.00;;;;;;;11.53;100.00;101809.00;4397749;32;20084;-69
2021/08/31 03:08:48;;;;;;;5.20;5.00;;;;;;;11.51;100.00;101815.22;4415075;32;20080;-69
2021/08/31 03:11:13;;;;;;;5.20;5.00;;;;;;;11.48;100.00;101808.31;4408075;32;20099;-69
2021/08/31 03:13:38;;;;;;;4.87;4.57;;;;;;;11.50;100.00;101813.50;4414471;32;20990;-69
2021/08/31 03:16:04;;;;;;;5.28;4.97;;;;;;;10.32;100.00;101654.16;4405721;32;20075;-69
2021/08/31 03:18:29;;;;;;;4.93;4.72;;;;;;;11.45;100.00;101800.53;4402021;32;20052;-69
2021/08/31 03:20:54;;;;;;;5.10;4.90;;;;;;;11.18;100.00;101763.91;4422590;32;20127;-69
2021/08/31 03:23:20;;;;;;;5.37;5.10;;;;;;;11.46;100.00;101804.03;4395983;32;20064;-69
2021/08/31 03:25:45;;;;;;;4.82;4.62;;;;;;;11.43;100.00;101810.25;4398615;32;20995;-69
2021/08/31 03:28:11;;;;;;;4.55;4.35;;;;;;;11.42;100.00;101811.16;4401109;32;20094;-69
2021/08/31 03:30:36;;;;;;;4.70;4.50;;;;;;;11.42;100.00;101799.81;4407533;32;20064;-68
2021/08/31 03:33:02;;;;;;;4.97;4.75;;;;;;;11.43;100.00;101812.03;4414569;32;20069;-69
2021/08/31 03:35:27;;;;;;;6.95;6.37;;;;;;;11.32;100.00;101787.00;4398158;32;20080;-69
2021/08/31 03:37:52;;;;;;;5.78;5.35;;;;;;;11.58;100.00;101811.44;4423810;32;20547;-69
2021/08/31 03:40:18;;;;;;;5.00;4.80;;;;;;;11.52;100.00;101802.00;4412988;32;20080;-69
2021/08/31 03:42:43;;;;;;;5.93;5.45;;;;;;;11.60;100.00;101825.38;4395382;32;20824;-68
2021/08/31 03:45:09;;;;;;;4.50;4.30;;;;;;;11.56;100.00;101811.50;4413293;32;20068;-69
2021/08/31 03:47:34;;;;;;;4.80;4.60;;;;;;;11.63;100.00;101832.31;4394921;32;20578;-69
2021/08/31 03:50:00;;;;;;;4.70;4.50;;;;;;;11.58;100.00;101830.69;4414712;32;20086;-69
2021/08/31 03:52:25;;;;;;;7.70;7.15;;;;;;;11.57;100.00;101834.25;4393952;32;20080;-69
2021/08/31 03:54:51;;;;;;;4.50;4.30;;;;;;;11.57;100.00;101843.91;4421309;32;20064;-69
2021/08/31 03:57:16;;;;;;;5.37;5.05;;;;;;;11.49;100.00;101838.09;4400343;32;20082;-69
2021/08/31 03:59:42;;;;;;;6.37;6.07;;;;;;;11.42;100.00;101829.56;4407515;32;20079;-69
2021/08/31 04:02:08;;;;;;;4.80;4.60;;;;;;;11.34;100.00;101810.59;4413146;32;20089;-69
2021/08/31 04:04:33;;;;;;;6.85;6.55;;;;;;;11.55;100.00;101848.38;4404976;32;20125;-69
2021/08/31 04:06:58;;;;;;;4.85;4.65;;;;;;;11.58;100.00;101842.97;4410383;32;20072;-69
2021/08/31 04:09:24;;;;;;;5.15;4.95;;;;;;;11.63;100.00;101841.06;4424839;32;20080;-70
2021/08/31 04:11:49;;;;;;;4.93;4.72;;;;;;;11.67;100.00;101847.91;4410532;32;20103;-69
2021/08/31 04:14:15;;;;;;;5.10;4.85;;;;;;;11.69;100.00;101851.34;4411060;32;20061;-69
2021/08/31 04:16:40;;;;;;;4.90;4.70;;;;;;;11.69;100.00;101851.34;4413815;32;20997;-69
2021/08/31 04:19:05;;;;;;;4.97;4.78;;;;;;;11.80;100.00;101853.53;4410839;32;20142;-70
2021/08/31 04:21:31;;;;;;;6.82;6.53;;;;;;;11.84;100.00;101878.81;4394242;32;20091;-69
2021/08/31 04:23:56;;;;;;;4.72;4.53;;;;;;;11.89;100.00;101862.91;4409490;32;20722;-70
2021/08/31 04:26:21;;;;;;;4.72;4.53;;;;;;;11.96;100.00;101869.62;4398645;32;20119;-70
2021/08/31 04:28:47;;;;;;;5.00;4.80;;;;;;;12.01;100.00;101869.44;4412145;32;20622;-69
2021/08/31 04:31:12;;;;;;;4.70;4.50;;;;;;;12.07;100.00;101877.97;4412955;32;20090;-69
2021/08/31 04:33:37;;;;;;;7.22;6.85;;;;;;;12.04;100.00;101864.91;4426881;32;20080;-69
2021/08/31 04:36:03;;;;;;;4.80;4.60;;;;;;;12.09;100.00;101864.75;4399941;32;20487;-70
2021/08/31 04:38:28;;;;;;;4.87;4.68;;;;;;;12.24;100.00;101879.91;4425777;32;20853;-69
2021/08/31 04:40:54;;;;;;;4.85;4.55;;;;;;;12.29;100.00;101885.00;4428322;32;20056;-69
2021/08/31 04:43:19;;;;;;;5.05;4.82;;;;;;;12.35;100.00;101884.75;4397576;32;20149;-70
2021/08/31 04:45:44;;;;;;;6.25;5.95;;;;;;;12.37;100.00;101880.28;4412009;32;20091;-69
2021/08/31 04:48:10;;;;;;;5.32;5.07;;;;;;;12.25;100.00;101860.56;4408092;32;20072;-69
2021/08/31 04:50:35;;;;;;;7.15;6.85;;;;;;;12.46;100.00;101881.66;4405703;32;20079;-70
2021/08/31 04:53:00;;;;;;;5.30;5.00;;;;;;;12.36;100.00;101863.59;4399220;32;20088;-71
2021/08/31 04:55:26;;;;;;;6.55;6.25;;;;;;;12.56;100.00;101880.38;4405432;32;20505;-70
2021/08/31 04:57:51;;;;;;;4.50;4.30;;;;;;;12.63;100.00;101881.84;4405189;32;20155;-71
2021/08/31 05:00:17;;;;;;;5.53;5.22;;;;;;;12.68;100.00;101887.75;4398531;32;20578;-72
2021/08/31 05:02:42;;;;;;;5.45;5.25;;;;;;;12.73;100.00;101892.84;4408156;32;20088;-72
2021/08/31 05:05:08;;;;;;;5.28;5.00;;;;;;;12.77;100.00;101899.69;4398525;32;20136;-72
2021/08/31 05:07:33;;;;;;;6.80;6.50;;;;;;;12.82;100.00;101895.06;4417856;32;20586;-72
2021/08/31 05:09:58;;;;;;;5.53;5.22;;;;;;;12.86;100.00;101903.72;4405102;32;20068;-72
2021/08/31 05:12:24;;;;;;;6.18;5.87;;;;;;;12.85;100.00;101902.84;4422478;32;20076;-73
2021/08/31 05:14:49;;;;;;;5.00;4.80;;;;;;;12.92;100.00;101920.09;4394194;32;20868;-72
2021/08/31 05:17:14;;;;;;;5.20;4.90;;;;;;;12.80;100.00;101888.16;4413109;32;20126;-72
2021/08/31 05:19:42;;;;;;;4.60;4.40;;;;;;;12.76;100.00;101882.16;4428494;32;20069;-71
2021/08/31 05:22:08;;;;;;;5.55;5.25;;;;;;;12.99;100.00;101926.00;4422394;32;20092;-72
2021/08/31 05:24:33;;;;;;;7.28;6.87;;;;;;;12.94;100.00;101907.72;4420993;32;20260;-71
2021/08/31 05:26:59;;;;;;;5.15;4.95;;;;;;;13.08;100.00;101919.47;4424613;32;20922;-72
2021/08/31 05:29:24;;;;;;;5.75;5.50;;;;;;;13.11;100.00;101920.19;4414895;32;20178;-72
2021/08/31 05:31:49;;;;;;;5.20;5.00;;;;;;;13.14;100.00;101930.56;4434983;32;20207;-71
2021/08/31 05:34:15;;;;;;;5.65;5.35;;;;;;;13.20;100.00;101933.88;4440590;32;20082;-71
2021/08/31 05:36:40;;;;;;;6.12;5.82;;;;;;;13.22;100.00;101934.69;4408633;32;20942;-71
2021/08/31 05:39:06;;;;;;;5.53;5.22;;;;;;;13.25;100.00;101926.62;4442494;32;20072;-72
2021/08/31 05:41:33;;;;;;;5.55;5.28;;;;;;;13.30;100.00;101929.97;4435822;32;20254;-72
2021/08/31 05:43:58;;;;;;;6.07;5.78;;;;;;;13.33;100.00;101928.03;4435468;32;20203;-72
2021/08/31 05:46:24;;;;;;;6.95;6.50;;;;;;;13.35;100.00;101938.53;4446785;32;20491;-72
2021/08/31 05:48:49;;;;;;;4.80;4.60;;;;;;;13.37;100.00;101936.69;4427735;32;20083;-71
2021/08/31 05:51:15;;;;;;;5.00;4.80;;;;;;;13.38;100.00;101938.37;4425370;32;20064;-72
2021/08/31 05:53:40;;;;;;;7.03;6.60;;;;;;;13.33;100.00;101943.88;4413060;32;21038;-72
2021/08/31 05:56:05;;;;;;;5.40;5.10;;;;;;;13.38;100.00;101946.28;4411659;32;20068;-72
2021/08/31 05:58:31;;;;;;;7.20;6.70;;;;;;;13.42;100.00;101939.97;4409437;32;20649;-72
2021/08/31 06:00:56;;;;;;;4.95;4.75;;;;;;;13.31;100.00;101913.19;4411189;32;20086;-70
2021/08/31 06:03:21;;;;;;;5.12;4.85;;;;;;;13.62;100.00;101940.84;4425623;32;20078;-72
2021/08/31 06:05:47;;;;;;;7.37;6.18;;;;;;;13.68;100.00;101945.84;4419654;32;20079;-71
2021/08/31 06:08:12;;;;;;;5.75;5.45;;;;;;;13.69;100.00;101952.81;4439841;32;20076;-71
2021/08/31 06:10:41;;;;;;;4.90;4.70;;;;;;;13.75;100.00;101948.16;4424791;32;20096;-72
2021/08/31 06:13:06;;;;;;;5.78;5.35;;;;;;;13.85;100.00;101943.31;4431294;32;20091;-71
2021/08/31 06:15:31;;;;;;;7.62;7.22;;;;;;;13.85;100.00;101947.72;4419717;32;20068;-70
2021/08/31 06:17:57;;;;;;;5.18;4.97;;;;;;;13.89;100.00;101950.16;4440445;32;20605;-71
2021/08/31 06:20:22;;;;;;;5.43;5.12;;;;;;;13.62;100.00;101925.88;4430561;32;20153;-71
2021/08/31 06:22:48;;;;;;;5.40;5.20;;;;;;;13.88;100.00;101964.25;4437871;32;20686;-71
2021/08/31 06:25:13;;;;;;;5.72;5.43;;;;;;;13.95;100.00;101960.44;4411006;32;20069;-71
2021/08/31 06:27:38;;;;;;;7.97;7.57;;;;;;;13.41;100.00;101860.91;4419171;32;21004;-71
2021/08/31 06:30:04;;;;;;;5.60;5.30;;;;;;;13.90;100.00;101945.72;4410840;32;20080;-70
2021/08/31 06:32:30;;;;;;;7.60;7.20;;;;;;;12.80;100.00;101745.91;4404800;32;20948;-70
2021/08/31 06:34:55;;;;;;;5.62;5.37;;;;;;;14.10;100.00;101972.06;4410508;32;20697;-70
2021/08/31 06:37:20;;;;;;;5.80;5.50;;;;;;;14.09;100.00;101969.47;4424352;32;20072;-71
2021/08/31 06:39:46;;;;;;;5.87;5.57;;;;;;;14.20;100.00;101975.13;4414348;32;20077;-70
2021/08/31 06:42:11;;;;;;;6.20;5.90;;;;;;;14.24;100.00;101981.97;4420846;32;20589;-70
2021/08/31 06:44:36;;;;;;;8.05;7.55;;;;;;;14.10;100.00;101981.75;4402901;32;20843;-71
2021/08/31 06:47:02;;;;;;;5.45;5.15;;;;;;;14.24;100.00;101987.25;4423150;32;20581;-69
2021/08/31 06:49:27;;;;;;;5.90;5.60;;;;;;;14.29;100.00;101981.75;4403736;32;20796;-69
2021/08/31 06:51:52;;;;;;;5.97;5.65;;;;;;;14.38;100.00;101980.47;4420933;32;20067;-71
2021/08/31 06:54:18;;;;;;;5.55;5.35;;;;;;;14.40;100.00;101984.75;4406031;32;20080;-74
2021/08/31 06:56:43;;;;;;;7.40;6.97;;;;;;;14.45;100.00;101981.88;4420624;32;20069;-72
2021/08/31 06:59:09;;;;;;;6.60;6.20;;;;;;;14.55;100.00;101976.09;4408433;32;20149;-73
2021/08/31 07:01:35;;;;;;;5.95;5.60;;;;;;;13.92;100.00;101862.91;4421027;32;20076;-72
2021/08/31 07:04:00;;;;;;;5.78;5.47;;;;;;;14.56;100.00;101990.19;4409235;32;20068;-71
2021/08/31 07:06:25;;;;;;;7.28;6.82;;;;;;;14.61;100.00;101985.50;4419779;32;20122;-75
2021/08/31 07:08:52;;;;;;;4.95;4.75;;;;;;;14.62;100.00;101984.59;4407106;32;21095;-75
2021/08/31 07:11:17;;;;;;;5.80;5.50;;;;;;;14.66;100.00;101988.78;4421578;32;20076;-75
2021/08/31 07:13:42;;;;;;;6.10;5.70;;;;;;;14.66;100.00;101998.50;4409186;32;20611;-72
2021/08/31 07:16:08;;;;;;;6.85;6.25;;;;;;;14.65;100.00;101991.50;4429465;32;20085;-72
2021/08/31 07:18:33;;;;;;;6.30;5.97;;;;;;;14.62;100.00;102002.25;4414927;32;20096;-71
2021/08/31 07:20:58;;;;;;;5.60;5.37;;;;;;;14.53;99.93;101990.28;4409517;32;20068;-72
2021/08/31 07:23:24;;;;;;;6.43;6.12;;;;;;;14.66;99.20;102002.00;4443135;32;20184;-71
2021/08/31 07:25:49;;;;;;;6.30;6.00;;;;;;;14.74;99.74;101997.19;4409045;32;20856;-71
2021/08/31 07:28:15;;;;;;;5.82;5.53;;;;;;;14.64;98.90;102001.22;4411860;32;20073;-71
2021/08/31 07:30:40;;;;;;;6.78;6.40;;;;;;;14.68;97.98;102005.44;4407987;32;20386;-72
2021/08/31 07:33:06;;;;;;;6.28;5.97;;;;;;;14.66;98.59;102009.94;4408807;32;21047;-72
2021/08/31 07:35:33;;;;;;;5.72;5.43;;;;;;;14.64;98.21;102011.78;4419702;32;20129;-70
2021/08/31 07:37:59;;;;;;;6.60;5.57;;;;;;;14.70;98.09;102011.50;4420371;32;20089;-71
2021/08/31 07:40:24;;;;;;;5.43;5.22;;;;;;;14.78;97.88;102008.50;4423210;32;20067;-71
2021/08/31 07:42:52;;;;;;;6.35;5.97;;;;;;;14.81;98.55;102012.75;4425133;32;20072;-72
2021/08/31 07:45:17;;;;;;;7.05;6.50;;;;;;;14.94;96.61;102019.16;4424848;32;20076;-69
2021/08/31 07:47:42;;;;;;;6.45;6.05;;;;;;;14.64;96.53;101963.38;4407965;32;20577;-71
2021/08/31 07:50:08;;;;;;;6.37;6.07;;;;;;;15.05;96.54;102027.41;4430485;32;20076;-70
2021/08/31 07:52:34;;;;;;;8.27;7.68;;;;;;;14.92;95.29;102035.09;4420061;32;20541;-70
2021/08/31 07:55:00;;;;;;;6.78;6.28;;;;;;;14.98;95.35;102035.72;4429967;32;20083;-72
2021/08/31 07:57:27;;;;;;;7.32;6.95;;;;;;;14.86;95.07;102037.19;4422275;32;21086;-73
2021/08/31 07:59:52;;;;;;;7.47;6.95;;;;;;;14.64;94.29;102037.37;4422398;32;20075;-68
2021/08/31 08:02:18;;;;;;;8.05;7.37;;;;;;;14.75;94.37;102038.56;4426273;32;20076;-66
2021/08/31 08:04:43;;;;;;;6.40;6.10;;;;;;;14.68;94.12;102034.50;4412954;32;20069;-70
2021/08/31 08:07:08;;;;;;;6.90;6.43;;;;;;;14.64;94.96;102032.09;4413431;32;20082;-68
2021/08/31 08:09:34;;;;;;;8.20;7.68;;;;;;;14.63;94.64;102041.78;4409249;32;20801;-67
2021/08/31 08:11:59;;;;;;;5.75;5.45;;;;;;;14.73;94.76;102045.72;4423215;32;20118;-65
2021/08/31 08:14:25;;;;;;;6.37;6.07;;;;;;;14.66;94.87;102039.00;4408896;32;20086;-69
2021/08/31 08:16:50;;;;;;;5.85;5.57;;;;;;;14.83;94.82;102055.81;4420838;32;20075;-69
2021/08/31 08:19:15;;;;;;;5.50;5.15;;;;;;;14.92;94.19;102053.59;4413268;32;20474;-70
2021/08/31 08:21:41;;;;;;;7.20;6.80;;;;;;;14.88;93.50;102059.97;4408231;32;20461;-67
2021/08/31 08:24:08;;;;;;;5.78;5.47;;;;;;;14.93;93.73;102062.38;4424976;32;20103;-68
2021/08/31 08:26:35;;;;;;;6.25;5.78;;;;;;;14.95;94.17;102063.16;4413472;32;20064;-68
2021/08/31 08:29:00;;;;;;;5.62;5.35;;;;;;;15.02;93.56;102063.72;4421098;32;20152;-68
2021/08/31 08:31:26;;;;;;;6.00;5.70;;;;;;;15.06;93.39;102060.84;4413342;32;20075;-67
2021/08/31 08:33:51;;;;;;;6.15;5.65;;;;;;;15.04;92.69;102064.50;4424909;32;20671;-67
2021/08/31 08:36:17;;;;;;;5.82;5.53;;;;;;;15.05;92.55;102072.34;4426843;32;20068;-68
2021/08/31 08:38:42;;;;;;;6.40;6.00;;;;;;;15.06;92.84;102060.00;4418646;32;20083;-69
2021/08/31 08:41:08;;;;;;;5.68;5.40;;;;;;;15.06;92.85;102065.28;4429951;32;20082;-70
2021/08/31 08:43:34;;;;;;;7.55;7.18;;;;;;;14.79;91.58;102041.91;4422664;32;20076;-67
2021/08/31 08:46:01;;;;;;;7.07;6.60;;;;;;;14.95;91.79;102068.44;4417909;32;20537;-71
2021/08/31 08:48:27;;;;;;;7.20;6.80;;;;;;;14.86;91.69;102060.97;4425059;32;20063;-67
2021/08/31 08:50:54;;;;;;;6.03;5.72;;;;;;;14.94;92.19;102059.66;4426520;32;20078;-65
2021/08/31 08:53:20;;;;;;;5.85;5.55;;;;;;;14.98;92.50;102068.31;4429447;32;20083;-68
2021/08/31 08:55:45;;;;;;;5.62;5.07;;;;;;;15.12;92.15;102065.84;4411770;32;20161;-68
2021/08/31 08:58:11;;;;;;;6.55;6.05;;;;;;;15.13;91.99;102067.56;4428114;32;20172;-69
2021/08/31 09:00:53;;;;;;;7.15;6.75;;;;;;;14.82;92.15;102004.75;4411639;32;20183;-69
2021/08/31 09:03:19;;;;;;;5.00;4.80;;;;;;;15.32;92.37;102056.91;4427666;32;20110;-68
2021/08/31 09:05:44;;;;;;;6.68;6.15;;;;;;;15.37;91.76;102061.97;4408300;32;20060;-67
2021/08/31 09:08:10;;;;;;;5.10;4.90;;;;;;;15.34;91.43;102044.47;4440869;32;20063;-70
2021/08/31 09:10:35;;;;;;;5.90;5.60;;;;;;;15.45;89.34;102073.00;4421559;32;20072;-70
2021/08/31 09:13:01;;;;;;;5.25;5.03;;;;;;;15.38;89.96;102042.53;4436869;32;20076;-70
2021/08/31 09:15:38;;;;;;;7.32;6.80;;;;;;;15.66;88.98;102059.63;4410263;32;20494;-69
2021/08/31 09:18:03;;;;;;;5.32;5.03;;;;;;;15.61;88.95;102066.94;4427614;32;20863;-68
2021/08/31 09:20:32;;;;;;;7.60;7.20;;;;;;;15.75;89.56;102070.63;4426903;32;20080;-68
2021/08/31 09:22:57;;;;;;;6.25;5.87;;;;;;;15.74;89.05;102063.59;4435070;32;20132;-67
2021/08/31 09:25:40;;;;;;;5.95;5.57;;;;;;;15.85;88.22;102070.97;4411149;32;20060;-68
2021/08/31 09:28:26;;;;;;;4.95;4.75;;;;;;;15.81;88.15;102073.87;4426841;32;20087;-65
2021/08/31 09:30:57;;;;;;;5.95;5.45;;;;;;;15.87;87.62;102069.09;4424933;32;20077;-69
2021/08/31 09:33:24;;;;;;;5.45;5.03;;;;;;;15.43;87.30;101986.72;4442300;32;20077;-69
2021/08/31 09:36:01;;;;;;;5.25;4.97;;;;;;;15.95;88.26;102061.59;4442828;32;20387;-68
2021/08/31 09:38:44;;;;;;;6.80;6.40;;;;;;;15.99;87.46;102066.75;4412311;32;20077;-72
2021/08/31 09:41:12;;;;;;;5.93;5.53;;;;;;;16.01;88.15;102075.47;4414092;32;20395;-70
2021/08/31 09:43:47;;;;;;;6.00;5.70;;;;;;;16.04;88.05;102070.03;4413270;32;20092;-67
2021/08/31 09:46:12;;;;;;;5.68;5.32;;;;;;;15.91;87.14;102036.22;4419739;32;20095;-66
2021/08/31 09:48:39;;;;;;;6.25;5.75;;;;;;;16.19;87.24;102074.47;4426199;32;20080;-69
2021/08/31 09:51:05;;;;;;;6.25;5.85;;;;;;;16.25;86.78;102073.31;4424308;32;20115;-66
2021/08/31 09:53:30;;;;;;;7.10;6.80;;;;;;;16.35;86.27;102067.41;4420833;32;20977;-66
2021/08/31 09:56:01;;;;;;;5.47;5.25;;;;;;;16.54;85.88;102066.41;4428419;32;20079;-68
2021/08/31 09:58:27;;;;;;;6.80;6.35;;;;;;;16.60;85.54;102070.50;4440922;32;20986;-69
2021/08/31 10:00:53;;;;;;;5.90;5.50;;;;;;;16.65;85.91;102065.81;4423068;32;20179;-63
2021/08/31 10:03:19;;;;;;;5.37;5.00;;;;;;;16.67;85.51;102059.47;4426091;32;20122;-68
2021/08/31 10:05:45;;;;;;;5.80;5.47;;;;;;;16.83;85.72;102063.94;4409569;32;20657;-71
2021/08/31 10:08:11;;;;;;;5.65;5.25;;;;;;;16.92;85.34;102063.44;4437130;32;20844;-68
2021/08/31 10:10:38;;;;;;;7.47;6.95;;;;;;;16.96;84.60;102064.97;4405964;32;20168;-69
2021/08/31 10:13:08;;;;;;;5.47;5.18;;;;;;;17.03;83.73;102068.97;4437906;32;20084;-70
2021/08/31 10:15:36;;;;;;;7.30;6.97;;;;;;;17.28;83.79;102062.22;4408948;32;20550;-69
2021/08/31 10:18:01;;;;;;;6.62;6.12;;;;;;;17.50;82.68;102068.00;4441620;32;20122;-71
2021/08/31 10:20:27;;;;;;;6.60;6.30;;;;;;;17.70;81.95;102057.94;4419310;32;20115;-70
2021/08/31 10:22:53;;;;;;;5.53;5.22;;;;;;;17.69;80.46;102011.12;4435350;32;20794;-71
2021/08/31 10:25:21;;;;;;;5.57;5.28;;;;;;;18.14;78.41;102057.06;4424306;32;20191;-72
2021/08/31 10:27:47;;;;;;;5.30;5.10;;;;;;;18.59;77.32;102067.53;4428197;32;20088;-71
2021/08/31 10:30:18;;;;;;;6.65;6.15;;;;;;;18.96;75.33;102062.50;4420613;32;20807;-72
2021/08/31 10:32:45;;;;;;;6.28;5.87;;;;;;;18.58;73.84;101978.94;4433608;32;20082;-72
2021/08/31 10:35:36;;;;;;;6.72;6.32;;;;;;;19.27;72.43;102069.31;4410079;32;20133;-73
2021/08/31 10:38:06;;;;;;;5.87;5.57;;;;;;;19.49;71.19;102074.03;4447630;32;20088;-73
2021/08/31 10:40:38;;;;;;;5.53;5.28;;;;;;;19.79;70.49;102065.78;4422368;32;20095;-70
2021/08/31 10:43:05;;;;;;;6.40;6.00;;;;;;;19.39;70.59;102072.97;4438420;32;20110;-72
2021/08/31 10:45:32;;;;;;;8.05;7.55;;;;;;;19.47;71.58;102067.97;4409049;32;20083;-72
2021/08/31 10:47:58;;;;;;;6.20;5.80;;;;;;;19.57;70.31;102068.19;4422665;32;20071;-73
2021/08/31 10:50:28;;;;;;;6.10;5.78;;;;;;;20.07;70.20;102079.84;4436685;32;20156;-72
2021/08/31 10:53:02;;;;;;;7.72;6.28;;;;;;;20.35;68.34;102061.88;4420976;32;20076;-72
2021/08/31 10:55:27;;;;;;;5.90;5.60;;;;;;;20.78;66.79;102061.44;4418168;32;20663;-73
2021/08/31 10:57:59;;;;;;;6.07;5.78;;;;;;;21.05;64.54;102064.75;4433977;32;20067;-69
2021/08/31 11:00:25;;;;;;;7.60;6.90;;;;;;;20.71;64.20;102056.56;4410300;32;20080;-67
2021/08/31 11:02:52;;;;;;;6.25;5.87;;;;;;;21.18;65.42;102070.00;4445293;32;20218;-67
2021/08/31 11:05:18;;;;;;;6.25;5.95;;;;;;;21.10;63.84;102062.56;4416974;32;20094;-67
2021/08/31 11:07:43;;;;;;;6.47;6.13;;;;;;;21.69;63.88;102066.16;4448009;32;20076;-67
2021/08/31 11:10:09;;;;;;;6.00;5.70;;;;;;;22.12;62.79;102060.09;4427644;32;20129;-67
2021/08/31 11:12:34;;;;;;;8.77;8.10;;;;;;;22.51;61.76;102060.56;4420649;32;20130;-67
2021/08/31 11:15:00;;;;;;;7.10;6.30;;;;;;;22.48;59.14;102052.81;4426804;32;20067;-68
2021/08/31 11:17:38;;;;;;;5.90;5.60;;;;;;;22.00;59.75;102051.22;4426521;32;20149;-68